Time;durP1;ratioP1;P1;durP2;ratioP2;P2;SDS_P1;SDS_P2;PMS_P1;PMS_P2;Temp;Humidity;BMP_temperature;BMP_pressure;BME280_temperature;BME280_humidity;BME280_pressure;Samples;Min_cycle;Max_cycle;Signal;HPM_P1;HPM_P2
2021/09/23 12:38:41;;;;;;;10.98;6.50;;;21.00;98.80;;;;;;14676686;22;1377626;-67
2021/09/23 12:44:32;;;;;;;11.15;6.63;;;21.00;98.80;;;;;;14655701;23;20060;-66
2021/09/23 12:50:24;;;;;;;10.63;6.25;;;21.30;98.10;;;;;;14651416;23;20021;-65
2021/09/23 13:02:33;;;;;;;10.95;6.03;;;21.50;94.60;;;;;;14674599;22;20181;-65
2021/09/23 13:08:23;;;;;;;10.80;5.72;;;21.50;95.40;;;;;;14585522;23;20025;-65
2021/09/23 13:14:25;;;;;;;14.02;6.38;;;21.80;95.80;;;;;;14650023;23;20018;-65
2021/09/23 13:20:12;;;;;;;10.80;6.07;;;21.80;95.80;;;;;;14609823;22;20137;-64
2021/09/23 13:26:01;;;;;;;8.20;5.88;;;22.00;95.00;;;;;;14561932;23;20049;-65
2021/09/23 13:31:49;;;;;;;13.02;5.68;;;22.10;93.50;;;;;;14626974;23;20053;-65
2021/09/23 13:37:36;;;;;;;8.73;5.47;;;22.30;94.20;;;;;;14627431;22;20114;-65
2021/09/23 13:43:31;;;;;;;10.50;5.68;;;22.40;93.60;;;;;;14621916;23;20033;-65
2021/09/23 13:49:21;;;;;;;9.52;6.15;;;22.50;92.70;;;;;;14622416;23;20026;-66
2021/09/23 13:55:10;;;;;;;10.77;6.80;;;22.50;92.90;;;;;;14665575;23;20030;-66
2021/09/23 14:00:59;;;;;;;7.10;5.38;;;22.40;93.20;;;;;;14608767;23;20108;-66
2021/09/23 14:06:47;;;;;;;10.18;5.63;;;22.60;92.90;;;;;;14660336;22;20013;-66
2021/09/23 14:12:35;;;;;;;7.22;5.50;;;22.70;92.00;;;;;;14635250;23;20474;-66
2021/09/23 14:18:24;;;;;;;9.32;5.38;;;22.80;92.80;;;;;;14713116;23;20049;-65
2021/09/23 14:24:15;;;;;;;8.68;6.15;;;22.90;91.90;;;;;;14709290;23;20024;-66
2021/09/23 14:30:04;;;;;;;74.57;49.90;;;22.80;91.30;;;;;;14646739;23;20076;-66
2021/09/23 14:35:54;;;;;;;7.20;5.15;;;22.80;91.00;;;;;;14650558;22;20037;-67
2021/09/23 14:53:46;;;;;;;8.55;5.45;;;23.20;89.00;;;;;;14535290;23;20048;-66
2021/09/23 14:59:36;;;;;;;8.45;5.43;;;23.30;88.70;;;;;;14431394;23;20076;-66
2021/09/23 15:05:26;;;;;;;8.55;4.25;;;23.40;88.60;;;;;;14559114;23;21292;-65
2021/09/23 15:11:14;;;;;;;6.22;4.65;;;23.40;88.40;;;;;;14544764;23;20108;-66
2021/09/23 15:17:10;;;;;;;9.32;4.00;;;23.40;88.30;;;;;;14550956;23;20660;-65
2021/09/23 15:22:57;;;;;;;4.90;4.07;;;23.30;87.90;;;;;;14619987;23;20278;-66
2021/09/23 15:28:44;;;;;;;5.63;4.20;;;23.30;87.00;;;;;;14522432;23;20017;-66
2021/09/23 15:34:33;;;;;;;6.13;4.47;;;23.30;88.30;;;;;;14611552;23;20037;-66
2021/09/23 15:46:23;;;;;;;7.95;4.57;;;23.30;89.40;;;;;;14645645;23;20025;-66
2021/09/23 15:52:22;;;;;;;7.93;4.32;;;23.20;89.10;;;;;;14536957;23;20105;-66
2021/09/23 16:04:13;;;;;;;7.05;4.60;;;23.50;90.30;;;;;;14577097;23;20021;-66
2021/09/23 16:10:04;;;;;;;7.80;5.47;;;23.50;90.40;;;;;;14543345;23;20045;-66
2021/09/23 16:15:51;;;;;;;10.27;5.35;;;23.40;91.00;;;;;;14479215;23;20032;-65
2021/09/23 16:21:39;;;;;;;7.28;5.55;;;23.50;92.60;;;;;;14624129;23;20156;-68
2021/09/23 16:27:30;;;;;;;8.18;5.40;;;23.50;91.90;;;;;;14621786;23;20046;-67
2021/09/23 16:33:18;;;;;;;8.13;5.22;;;23.40;91.50;;;;;;14531065;23;20380;-64
2021/09/23 16:39:05;;;;;;;7.82;5.95;;;23.40;91.60;;;;;;14637302;22;20618;-65
2021/09/23 16:44:54;;;;;;;5.97;4.85;;;23.30;91.40;;;;;;14686411;23;20475;-66
2021/09/23 16:50:41;;;;;;;7.18;4.70;;;23.20;91.40;;;;;;14684507;23;20025;-67
2021/09/23 16:56:29;;;;;;;6.70;5.53;;;23.30;91.60;;;;;;14571900;23;20040;-65
2021/09/23 17:08:21;;;;;;;9.70;4.88;;;22.50;93.20;;;;;;14596975;23;20028;-71
2021/09/23 17:20:31;;;;;;;9.30;5.70;;;21.50;95.90;;;;;;14659114;23;20013;-69
2021/09/23 17:26:18;;;;;;;9.60;5.60;;;21.10;98.10;;;;;;14538523;23;20538;-68
2021/09/23 17:32:26;;;;;;;7.78;5.25;;;20.80;98.90;;;;;;14620721;23;20472;-70
2021/09/23 17:38:18;;;;;;;41.13;22.55;;;20.60;99.90;;;;;;14664689;22;20064;-64
2021/09/23 17:44:09;;;;;;;10.13;5.97;;;20.50;99.90;;;;;;14624159;23;20034;-66
2021/09/23 17:49:57;;;;;;;11.30;6.05;;;20.40;99.90;;;;;;14612979;23;20029;-64
2021/09/23 17:55:49;;;;;;;8.43;5.90;;;20.30;99.90;;;;;;14616336;23;20048;-65
2021/09/23 18:08:20;;;;;;;13.40;6.72;;;20.00;99.90;;;;;;14619599;22;20555;-64
2021/09/23 18:14:27;;;;;;;9.98;5.57;;;19.80;99.90;;;;;;14607136;22;20052;-64
2021/09/23 18:20:15;;;;;;;14.38;6.25;;;19.70;99.90;;;;;;14657318;23;20028;-65
2021/09/23 18:32:33;;;;;;;8.00;5.40;;;19.40;99.90;;;;;;14604522;22;20105;-64
2021/09/23 18:44:37;;;;;;;10.95;6.32;;;19.20;99.90;;;;;;14502719;23;20025;-63
2021/09/23 18:50:27;;;;;;;10.52;5.88;;;19.20;99.90;;;;;;14679149;23;20079;-65
2021/09/23 18:56:54;;;;;;;10.35;6.40;;;19.20;99.90;;;;;;14541863;23;20021;-65
2021/09/23 19:03:00;;;;;;;13.23;7.13;;;19.20;99.90;;;;;;14694193;23;20152;-64
2021/09/23 19:08:49;;;;;;;12.20;7.20;;;19.10;99.90;;;;;;14677033;23;20051;-65
2021/09/23 19:21:07;;;;;;;17.75;7.47;;;19.00;99.90;;;;;;14633385;23;20025;-65
2021/09/23 19:27:24;;;;;;;11.68;7.40;;;18.90;99.90;;;;;;14626049;23;20032;-64
2021/09/23 19:39:37;;;;;;;12.85;8.40;;;18.80;99.90;;;;;;14634721;23;20022;-65
2021/09/23 19:45:26;;;;;;;21.63;9.02;;;18.80;99.90;;;;;;14580483;23;20089;-65
2021/09/23 19:51:15;;;;;;;11.88;8.88;;;18.70;99.90;;;;;;14618104;23;20024;-65
